DAL1152 KRNO-KLAX
Flight info
| Callsign | DAL1152 |
|---|---|
| Flight time | 1h 1m |
| Altitude | 34000 |
| Route | ZEFFR9 DARBI FRA REBRG IRNMN2 |
| Aircraft | A320/M-SDE3FGHIRWY/LB1 |
Departure
| Time | 2026-05-05 01:59 |
|---|---|
| Airport | Reno Tahoe International Airport (KRNO) |
Arrival
| Time | 2026-05-05 03:00 |
|---|---|
| Airport | Los Angeles International Airport (KLAX) |
| Time | Latitude | Longitude | Altitude | Speed | Heading |
|---|---|---|---|---|---|
| 2026-05-05 01:29 | 39.50753 | -119.77345 | 4410 ft | 0 kts | 182° |
| 2026-05-05 01:44 | 39.50778 | -119.77344 | 4410 ft | 4 kts | 182° |
| 2026-05-05 01:44 | 39.50805 | -119.77343 | 4412 ft | 4 kts | 182° |
| 2026-05-05 01:45 | 39.50816 | -119.77342 | 4412 ft | 0 kts | 182° |
| 2026-05-05 01:50 | 39.50815 | -119.77341 | 4412 ft | 1 kts | 171° |
| 2026-05-05 01:51 | 39.50804 | -119.77294 | 4409 ft | 11 kts | 94° |
| 2026-05-05 01:51 | 39.50803 | -119.77219 | 4409 ft | 0 kts | 91° |
| 2026-05-05 01:54 | 39.50803 | -119.77216 | 4409 ft | 3 kts | 91° |
| 2026-05-05 01:54 | 39.50806 | -119.77177 | 4409 ft | 4 kts | 69° |
| 2026-05-05 01:54 | 39.50835 | -119.77155 | 4409 ft | 8 kts | 10° |
| 2026-05-05 01:54 | 39.50885 | -119.77152 | 4409 ft | 6 kts | 0° |
| 2026-05-05 01:55 | 39.50916 | -119.77151 | 4409 ft | 4 kts | 0° |
| 2026-05-05 01:55 | 39.50981 | -119.77151 | 4411 ft | 12 kts | 0° |
| 2026-05-05 01:55 | 39.51061 | -119.77148 | 4413 ft | 11 kts | 11° |
| 2026-05-05 01:55 | 39.51109 | -119.77087 | 4412 ft | 9 kts | 51° |
| 2026-05-05 01:56 | 39.51158 | -119.77073 | 4412 ft | 7 kts | 4° |
| 2026-05-05 01:56 | 39.51206 | -119.77069 | 4411 ft | 10 kts | 3° |
| 2026-05-05 01:56 | 39.51286 | -119.77067 | 4411 ft | 12 kts | 0° |
| 2026-05-05 01:56 | 39.51343 | -119.77064 | 4412 ft | 6 kts | 8° |
| 2026-05-05 01:57 | 39.51365 | -119.77041 | 4411 ft | 0 kts | 65° |
| 2026-05-05 01:57 | 39.51372 | -119.76977 | 4410 ft | 10 kts | 97° |
| 2026-05-05 01:58 | 39.51326 | -119.76931 | 4411 ft | 8 kts | 171° |
| 2026-05-05 01:58 | 39.51150 | -119.76924 | 4414 ft | 65 kts | 180° |
| 2026-05-05 01:58 | 39.50407 | -119.76924 | 4408 ft | 145 kts | 180° |
| 2026-05-05 01:58 | 39.49191 | -119.76965 | 4496 ft | 196 kts | 189° |
| 2026-05-05 01:59 | 39.47777 | -119.77004 | 5322 ft | 210 kts | 179° |
| 2026-05-05 01:59 | 39.46226 | -119.76986 | 6011 ft | 236 kts | 181° |
| 2026-05-05 01:59 | 39.44496 | -119.76976 | 6685 ft | 261 kts | 181° |
| 2026-05-05 01:59 | 39.42602 | -119.76971 | 7484 ft | 280 kts | 181° |
| 2026-05-05 02:00 | 39.40607 | -119.76965 | 8484 ft | 292 kts | 180° |
| 2026-05-05 02:00 | 39.38573 | -119.76963 | 9733 ft | 293 kts | 179° |
| 2026-05-05 02:00 | 39.36509 | -119.76964 | 10830 ft | 299 kts | 178° |
| 2026-05-05 02:00 | 39.34408 | -119.76967 | 11853 ft | 308 kts | 178° |
| 2026-05-05 02:01 | 39.32182 | -119.76966 | 12395 ft | 333 kts | 177° |
| 2026-05-05 02:01 | 39.29793 | -119.76931 | 13030 ft | 351 kts | 175° |
| 2026-05-05 02:01 | 39.27325 | -119.76845 | 13872 ft | 360 kts | 174° |
| 2026-05-05 02:01 | 39.24793 | -119.76735 | 14725 ft | 366 kts | 174° |
| 2026-05-05 02:02 | 39.22227 | -119.76618 | 15603 ft | 371 kts | 173° |
| 2026-05-05 02:02 | 39.19641 | -119.76504 | 16527 ft | 374 kts | 173° |
| 2026-05-05 02:02 | 39.17020 | -119.76396 | 17404 ft | 379 kts | 173° |
| 2026-05-05 02:02 | 39.14362 | -119.76291 | 18259 ft | 385 kts | 173° |
| 2026-05-05 02:03 | 39.11671 | -119.76189 | 18995 ft | 390 kts | 173° |
| 2026-05-05 02:03 | 39.08946 | -119.76090 | 19753 ft | 394 kts | 173° |
| 2026-05-05 02:03 | 39.06192 | -119.75989 | 20510 ft | 398 kts | 173° |
| 2026-05-05 02:03 | 39.03407 | -119.75887 | 21260 ft | 403 kts | 173° |
| 2026-05-05 02:04 | 39.00587 | -119.75783 | 22033 ft | 407 kts | 173° |
| 2026-05-05 02:04 | 38.97779 | -119.75678 | 22838 ft | 410 kts | 173° |
| 2026-05-05 02:04 | 38.94914 | -119.75570 | 23602 ft | 413 kts | 173° |
| 2026-05-05 02:04 | 38.92025 | -119.75460 | 24221 ft | 417 kts | 173° |
| 2026-05-05 02:05 | 38.89087 | -119.75349 | 24516 ft | 430 kts | 173° |
| 2026-05-05 02:05 | 38.86044 | -119.75226 | 24627 ft | 445 kts | 173° |
| 2026-05-05 02:05 | 38.82902 | -119.75101 | 24743 ft | 458 kts | 174° |
| 2026-05-05 02:05 | 38.79667 | -119.74974 | 24856 ft | 469 kts | 174° |
| 2026-05-05 02:06 | 38.76369 | -119.74848 | 25071 ft | 476 kts | 174° |
| 2026-05-05 02:06 | 38.73046 | -119.74729 | 25369 ft | 480 kts | 174° |
| 2026-05-05 02:06 | 38.69701 | -119.74615 | 25702 ft | 482 kts | 174° |
| 2026-05-05 02:06 | 38.66363 | -119.74501 | 25989 ft | 484 kts | 174° |
| 2026-05-05 02:07 | 38.62989 | -119.74382 | 26299 ft | 486 kts | 174° |
| 2026-05-05 02:07 | 38.59592 | -119.74259 | 26621 ft | 487 kts | 174° |
| 2026-05-05 02:07 | 38.56219 | -119.74138 | 27257 ft | 480 kts | 174° |
| 2026-05-05 02:07 | 38.52891 | -119.74019 | 27813 ft | 478 kts | 174° |
| 2026-05-05 02:08 | 38.49559 | -119.73893 | 28221 ft | 479 kts | 174° |
| 2026-05-05 02:08 | 38.46224 | -119.73765 | 28553 ft | 481 kts | 174° |
| 2026-05-05 02:08 | 38.42875 | -119.73636 | 28878 ft | 482 kts | 174° |
| 2026-05-05 02:08 | 38.39518 | -119.73510 | 29341 ft | 480 kts | 174° |
| 2026-05-05 02:09 | 38.36184 | -119.73390 | 29829 ft | 478 kts | 174° |
| 2026-05-05 02:09 | 38.32864 | -119.73273 | 30249 ft | 476 kts | 174° |
| 2026-05-05 02:09 | 38.29559 | -119.73150 | 30663 ft | 474 kts | 173° |
| 2026-05-05 02:09 | 38.26272 | -119.72920 | 31053 ft | 472 kts | 172° |
| 2026-05-05 02:10 | 38.23043 | -119.72571 | 31455 ft | 469 kts | 171° |
| 2026-05-05 02:10 | 38.19793 | -119.72142 | 31904 ft | 467 kts | 171° |
| 2026-05-05 02:10 | 38.16574 | -119.71692 | 32349 ft | 465 kts | 171° |
| 2026-05-05 02:10 | 38.13370 | -119.71255 | 32809 ft | 462 kts | 172° |
| 2026-05-05 02:11 | 38.10165 | -119.70846 | 33246 ft | 460 kts | 173° |
| 2026-05-05 02:11 | 38.06990 | -119.70470 | 33705 ft | 458 kts | 173° |
| 2026-05-05 02:11 | 38.03817 | -119.70112 | 33959 ft | 456 kts | 174° |
| 2026-05-05 02:11 | 38.00646 | -119.69760 | 34008 ft | 459 kts | 174° |
| 2026-05-05 02:12 | 37.91095 | -119.68689 | 34007 ft | 459 kts | 174° |
| 2026-05-05 02:13 | 37.85824 | -119.68090 | 34013 ft | 455 kts | 174° |
| 2026-05-05 02:13 | 37.79509 | -119.67362 | 34019 ft | 456 kts | 174° |
| 2026-05-05 02:14 | 37.73182 | -119.66633 | 34012 ft | 455 kts | 174° |
| 2026-05-05 02:14 | 37.70028 | -119.66275 | 33876 ft | 453 kts | 174° |
| 2026-05-05 02:14 | 37.66890 | -119.65921 | 33181 ft | 453 kts | 173° |
| 2026-05-05 02:14 | 37.63725 | -119.65560 | 32979 ft | 459 kts | 173° |
| 2026-05-05 02:15 | 37.60576 | -119.65200 | 33027 ft | 461 kts | 173° |
| 2026-05-05 02:15 | 37.54186 | -119.64478 | 33018 ft | 461 kts | 173° |
| 2026-05-05 02:16 | 37.47784 | -119.63761 | 33020 ft | 461 kts | 173° |
| 2026-05-05 02:16 | 37.41383 | -119.63031 | 33019 ft | 461 kts | 173° |
| 2026-05-05 02:17 | 37.34984 | -119.62307 | 33012 ft | 461 kts | 174° |
| 2026-05-05 02:17 | 37.28593 | -119.61598 | 33011 ft | 461 kts | 174° |
| 2026-05-05 02:18 | 37.22200 | -119.60877 | 33011 ft | 461 kts | 173° |
| 2026-05-05 02:18 | 37.15801 | -119.60144 | 33007 ft | 462 kts | 174° |
| 2026-05-05 02:19 | 37.09406 | -119.59551 | 33004 ft | 462 kts | 180° |
| 2026-05-05 02:19 | 37.02973 | -119.59683 | 33010 ft | 462 kts | 180° |
| 2026-05-05 02:20 | 36.96551 | -119.59794 | 33013 ft | 461 kts | 181° |
| 2026-05-05 02:20 | 36.90136 | -119.59900 | 33015 ft | 460 kts | 181° |
| 2026-05-05 02:21 | 36.83769 | -119.60006 | 33017 ft | 460 kts | 181° |
| 2026-05-05 02:21 | 36.77366 | -119.60115 | 33017 ft | 460 kts | 181° |
| 2026-05-05 02:22 | 36.70958 | -119.60225 | 33016 ft | 460 kts | 181° |
| 2026-05-05 02:22 | 36.64561 | -119.60335 | 33016 ft | 460 kts | 181° |
| 2026-05-05 02:23 | 36.58158 | -119.60447 | 33017 ft | 460 kts | 181° |
| 2026-05-05 02:23 | 36.51765 | -119.60561 | 33010 ft | 458 kts | 182° |
| 2026-05-05 02:24 | 36.45405 | -119.60669 | 33009 ft | 457 kts | 182° |
| 2026-05-05 02:24 | 36.39041 | -119.60774 | 33008 ft | 457 kts | 182° |
| 2026-05-05 02:25 | 36.32674 | -119.60887 | 33008 ft | 456 kts | 182° |
| 2026-05-05 02:25 | 36.26340 | -119.60994 | 33008 ft | 455 kts | 182° |
| 2026-05-05 02:26 | 36.20009 | -119.61105 | 33010 ft | 455 kts | 182° |
| 2026-05-05 02:26 | 36.13720 | -119.61204 | 33000 ft | 455 kts | 183° |
| 2026-05-05 02:27 | 36.07430 | -119.61309 | 33006 ft | 450 kts | 184° |
| 2026-05-05 02:27 | 36.01175 | -119.61422 | 33001 ft | 449 kts | 184° |
| 2026-05-05 02:28 | 35.95069 | -119.62630 | 32999 ft | 443 kts | 199° |
| 2026-05-05 02:28 | 35.89173 | -119.64872 | 32997 ft | 441 kts | 199° |
| 2026-05-05 02:29 | 35.83315 | -119.67054 | 33000 ft | 440 kts | 199° |
| 2026-05-05 02:29 | 35.77456 | -119.69241 | 33000 ft | 440 kts | 199° |
| 2026-05-05 02:30 | 35.71598 | -119.71431 | 33000 ft | 440 kts | 199° |
| 2026-05-05 02:30 | 35.65711 | -119.73504 | 33003 ft | 439 kts | 195° |
| 2026-05-05 02:31 | 35.59769 | -119.74956 | 33003 ft | 435 kts | 195° |
| 2026-05-05 02:31 | 35.53839 | -119.76404 | 33005 ft | 435 kts | 194° |
| 2026-05-05 02:32 | 35.47908 | -119.77836 | 33005 ft | 435 kts | 194° |
| 2026-05-05 02:32 | 35.41963 | -119.79268 | 33002 ft | 433 kts | 195° |
| 2026-05-05 02:33 | 35.36078 | -119.80684 | 33009 ft | 430 kts | 195° |
| 2026-05-05 02:33 | 35.30068 | -119.80656 | 33013 ft | 446 kts | 171° |
| 2026-05-05 02:34 | 35.24287 | -119.77639 | 33017 ft | 458 kts | 156° |
| 2026-05-05 02:34 | 35.19022 | -119.73158 | 33021 ft | 462 kts | 150° |
| 2026-05-05 02:35 | 35.13883 | -119.68449 | 33012 ft | 462 kts | 150° |
| 2026-05-05 02:35 | 35.08771 | -119.63682 | 33010 ft | 462 kts | 149° |
| 2026-05-05 02:36 | 35.03659 | -119.58903 | 33001 ft | 462 kts | 150° |
| 2026-05-05 02:36 | 34.98588 | -119.54177 | 32763 ft | 461 kts | 150° |
| 2026-05-05 02:36 | 34.96045 | -119.51810 | 31979 ft | 459 kts | 150° |
| 2026-05-05 02:37 | 34.93510 | -119.49459 | 30789 ft | 458 kts | 150° |
| 2026-05-05 02:37 | 34.90978 | -119.47116 | 29542 ft | 451 kts | 150° |
| 2026-05-05 02:37 | 34.88467 | -119.44825 | 28219 ft | 454 kts | 150° |
| 2026-05-05 02:37 | 34.85890 | -119.42524 | 26935 ft | 463 kts | 150° |
| 2026-05-05 02:38 | 34.83308 | -119.40233 | 26194 ft | 450 kts | 150° |
| 2026-05-05 02:38 | 34.80860 | -119.38047 | 26064 ft | 426 kts | 150° |
| 2026-05-05 02:38 | 34.78534 | -119.35966 | 25823 ft | 407 kts | 150° |
| 2026-05-05 02:38 | 34.76263 | -119.33938 | 25298 ft | 399 kts | 150° |
| 2026-05-05 02:39 | 34.74035 | -119.31962 | 24696 ft | 395 kts | 150° |
| 2026-05-05 02:39 | 34.71816 | -119.30018 | 24078 ft | 391 kts | 150° |
| 2026-05-05 02:39 | 34.69609 | -119.28099 | 23461 ft | 389 kts | 150° |
| 2026-05-05 02:39 | 34.67411 | -119.26193 | 23016 ft | 387 kts | 150° |
| 2026-05-05 02:40 | 34.65235 | -119.24309 | 22348 ft | 384 kts | 150° |
| 2026-05-05 02:40 | 34.63065 | -119.22435 | 21734 ft | 380 kts | 149° |
| 2026-05-05 02:40 | 34.60910 | -119.20580 | 21234 ft | 379 kts | 149° |
| 2026-05-05 02:40 | 34.58761 | -119.18733 | 20846 ft | 377 kts | 149° |
| 2026-05-05 02:41 | 34.56624 | -119.16898 | 20504 ft | 376 kts | 149° |
| 2026-05-05 02:41 | 34.54532 | -119.15084 | 20158 ft | 374 kts | 148° |
| 2026-05-05 02:41 | 34.52433 | -119.13231 | 19815 ft | 372 kts | 148° |
| 2026-05-05 02:41 | 34.50351 | -119.11378 | 19470 ft | 370 kts | 148° |
| 2026-05-05 02:42 | 34.48282 | -119.09531 | 19114 ft | 368 kts | 148° |
| 2026-05-05 02:42 | 34.46222 | -119.07700 | 18728 ft | 366 kts | 148° |
| 2026-05-05 02:42 | 34.44179 | -119.05885 | 18321 ft | 364 kts | 148° |
| 2026-05-05 02:42 | 34.42136 | -119.04083 | 17873 ft | 361 kts | 148° |
| 2026-05-05 02:43 | 34.40098 | -119.02311 | 17423 ft | 359 kts | 148° |
| 2026-05-05 02:43 | 34.38067 | -119.00563 | 16977 ft | 358 kts | 148° |
| 2026-05-05 02:43 | 34.36041 | -118.98820 | 16539 ft | 356 kts | 148° |
| 2026-05-05 02:43 | 34.34032 | -118.97088 | 16113 ft | 354 kts | 148° |
| 2026-05-05 02:44 | 34.32044 | -118.95339 | 15685 ft | 353 kts | 147° |
| 2026-05-05 02:44 | 34.30082 | -118.93566 | 15256 ft | 351 kts | 147° |
| 2026-05-05 02:44 | 34.28134 | -118.91782 | 14850 ft | 350 kts | 146° |
| 2026-05-05 02:44 | 34.26200 | -118.90007 | 14475 ft | 348 kts | 146° |
| 2026-05-05 02:45 | 34.24276 | -118.88246 | 14084 ft | 354 kts | 146° |
| 2026-05-05 02:45 | 34.22294 | -118.86430 | 13356 ft | 360 kts | 146° |
| 2026-05-05 02:45 | 34.20326 | -118.84617 | 12855 ft | 352 kts | 146° |
| 2026-05-05 02:45 | 34.18422 | -118.82859 | 12698 ft | 336 kts | 145° |
| 2026-05-05 02:46 | 34.16613 | -118.81184 | 12565 ft | 320 kts | 145° |
| 2026-05-05 02:46 | 34.14933 | -118.79507 | 12424 ft | 308 kts | 142° |
| 2026-05-05 02:46 | 34.13352 | -118.77804 | 12101 ft | 302 kts | 141° |
| 2026-05-05 02:46 | 34.11814 | -118.76090 | 11966 ft | 301 kts | 141° |
| 2026-05-05 02:47 | 34.10271 | -118.74369 | 11973 ft | 303 kts | 141° |
| 2026-05-05 02:47 | 34.08719 | -118.72650 | 11977 ft | 303 kts | 141° |
| 2026-05-05 02:47 | 34.07160 | -118.70935 | 11989 ft | 303 kts | 141° |
| 2026-05-05 02:47 | 34.05626 | -118.69255 | 11991 ft | 294 kts | 141° |
| 2026-05-05 02:48 | 34.04183 | -118.67525 | 11932 ft | 293 kts | 132° |
| 2026-05-05 02:48 | 34.03152 | -118.65439 | 11581 ft | 295 kts | 115° |
| 2026-05-05 02:48 | 34.02642 | -118.63012 | 11219 ft | 296 kts | 99° |
| 2026-05-05 02:48 | 34.02424 | -118.60550 | 10857 ft | 294 kts | 98° |
| 2026-05-05 02:49 | 34.02202 | -118.58142 | 10512 ft | 292 kts | 99° |
| 2026-05-05 02:49 | 34.01974 | -118.55724 | 10151 ft | 290 kts | 99° |
| 2026-05-05 02:49 | 34.01746 | -118.53313 | 9780 ft | 287 kts | 99° |
| 2026-05-05 02:49 | 34.01520 | -118.50942 | 9531 ft | 279 kts | 99° |
| 2026-05-05 02:50 | 34.01305 | -118.48664 | 9395 ft | 268 kts | 99° |
| 2026-05-05 02:50 | 34.01108 | -118.46470 | 9230 ft | 259 kts | 95° |
| 2026-05-05 02:50 | 34.01249 | -118.44335 | 8985 ft | 255 kts | 80° |
| 2026-05-05 02:50 | 34.01611 | -118.42204 | 8267 ft | 261 kts | 79° |
| 2026-05-05 02:51 | 34.01984 | -118.40050 | 7561 ft | 263 kts | 78° |
| 2026-05-05 02:51 | 34.02360 | -118.37889 | 6866 ft | 264 kts | 78° |
| 2026-05-05 02:51 | 34.02731 | -118.35726 | 6203 ft | 262 kts | 80° |
| 2026-05-05 02:51 | 34.03004 | -118.33635 | 6026 ft | 244 kts | 83° |
| 2026-05-05 02:52 | 34.03215 | -118.31626 | 5985 ft | 241 kts | 84° |
| 2026-05-05 02:52 | 34.03414 | -118.29619 | 5927 ft | 241 kts | 84° |
| 2026-05-05 02:52 | 34.03616 | -118.27616 | 5762 ft | 240 kts | 83° |
| 2026-05-05 02:52 | 34.03823 | -118.25632 | 5581 ft | 237 kts | 84° |
| 2026-05-05 02:53 | 34.04034 | -118.23654 | 5402 ft | 237 kts | 84° |
| 2026-05-05 02:53 | 34.04245 | -118.21703 | 5245 ft | 236 kts | 83° |
| 2026-05-05 02:53 | 34.04476 | -118.19743 | 5094 ft | 235 kts | 81° |
| 2026-05-05 02:53 | 34.04726 | -118.17788 | 4990 ft | 236 kts | 81° |
| 2026-05-05 02:54 | 34.04695 | -118.15821 | 4990 ft | 236 kts | 109° |
| 2026-05-05 02:54 | 34.03843 | -118.14178 | 4997 ft | 230 kts | 142° |
| 2026-05-05 02:54 | 34.02445 | -118.13303 | 4770 ft | 230 kts | 168° |
| 2026-05-05 02:54 | 34.00879 | -118.13189 | 4497 ft | 220 kts | 191° |
| 2026-05-05 02:55 | 33.99469 | -118.13782 | 4379 ft | 215 kts | 213° |
| 2026-05-05 02:55 | 33.98341 | -118.14949 | 4221 ft | 212 kts | 233° |
| 2026-05-05 02:55 | 33.97660 | -118.16505 | 4011 ft | 209 kts | 255° |
| 2026-05-05 02:55 | 33.97427 | -118.18222 | 3755 ft | 207 kts | 263° |
| 2026-05-05 02:56 | 33.97260 | -118.19932 | 3489 ft | 207 kts | 263° |
| 2026-05-05 02:56 | 33.97090 | -118.21634 | 3219 ft | 207 kts | 262° |
| 2026-05-05 02:56 | 33.96918 | -118.23348 | 2935 ft | 199 kts | 263° |
| 2026-05-05 02:56 | 33.96757 | -118.24946 | 2686 ft | 191 kts | 262° |
| 2026-05-05 02:57 | 33.96600 | -118.26496 | 2458 ft | 182 kts | 263° |
| 2026-05-05 02:57 | 33.96449 | -118.27991 | 2190 ft | 179 kts | 263° |
| 2026-05-05 02:57 | 33.96301 | -118.29455 | 1938 ft | 171 kts | 262° |
| 2026-05-05 02:57 | 33.96164 | -118.30812 | 1723 ft | 159 kts | 263° |
| 2026-05-05 02:58 | 33.96030 | -118.32129 | 1518 ft | 155 kts | 262° |
| 2026-05-05 02:58 | 33.95901 | -118.33402 | 1313 ft | 150 kts | 262° |
| 2026-05-05 02:58 | 33.95774 | -118.34652 | 1097 ft | 152 kts | 263° |
| 2026-05-05 02:58 | 33.95647 | -118.35902 | 884 ft | 148 kts | 264° |
| 2026-05-05 02:59 | 33.95520 | -118.37146 | 683 ft | 151 kts | 261° |
| 2026-05-05 02:59 | 33.95391 | -118.38409 | 465 ft | 151 kts | 261° |
| 2026-05-05 02:59 | 33.95271 | -118.39619 | 265 ft | 142 kts | 260° |
| 2026-05-05 02:59 | 33.95152 | -118.40757 | 132 ft | 128 kts | 260° |
| 2026-05-05 03:00 | 33.95072 | -118.41529 | 126 ft | 50 kts | 263° |
| 2026-05-05 03:00 | 33.95060 | -118.41660 | 126 ft | 7 kts | 263° |
| 2026-05-05 03:00 | 33.95040 | -118.41864 | 126 ft | 35 kts | 262° |
| 2026-05-05 03:00 | 33.95011 | -118.42138 | 125 ft | 31 kts | 264° |
| 2026-05-05 03:01 | 33.94995 | -118.42308 | 126 ft | 30 kts | 263° |
| 2026-05-05 03:01 | 33.94953 | -118.42545 | 126 ft | 29 kts | 232° |
| 2026-05-05 03:01 | 33.94852 | -118.42681 | 124 ft | 20 kts | 225° |
| 2026-05-05 03:01 | 33.94735 | -118.42769 | 122 ft | 18 kts | 201° |
| 2026-05-05 03:02 | 33.94646 | -118.42746 | 125 ft | 14 kts | 131° |
| 2026-05-05 03:02 | 33.94641 | -118.42644 | 126 ft | 13 kts | 83° |
| 2026-05-05 03:02 | 33.94652 | -118.42534 | 126 ft | 13 kts | 82° |
| 2026-05-05 03:02 | 33.94664 | -118.42419 | 125 ft | 14 kts | 83° |
| 2026-05-05 03:03 | 33.94678 | -118.42296 | 126 ft | 20 kts | 83° |
| 2026-05-05 03:03 | 33.94698 | -118.42105 | 126 ft | 24 kts | 82° |
| 2026-05-05 03:03 | 33.94718 | -118.41904 | 122 ft | 25 kts | 83° |
| 2026-05-05 03:03 | 33.94740 | -118.41693 | 126 ft | 27 kts | 82° |
| 2026-05-05 03:04 | 33.94764 | -118.41460 | 124 ft | 29 kts | 81° |
| 2026-05-05 03:04 | 33.94793 | -118.41277 | 126 ft | 19 kts | 89° |
| 2026-05-05 03:04 | 33.94812 | -118.41125 | 126 ft | 19 kts | 81° |
| 2026-05-05 03:04 | 33.94829 | -118.40970 | 126 ft | 19 kts | 83° |
| 2026-05-05 03:05 | 33.94843 | -118.40813 | 126 ft | 19 kts | 84° |
| 2026-05-05 03:05 | 33.94858 | -118.40661 | 126 ft | 16 kts | 83° |
| 2026-05-05 03:05 | 33.94833 | -118.40600 | 122 ft | 8 kts | 157° |
| 2026-05-05 03:05 | 33.94773 | -118.40589 | 124 ft | 11 kts | 172° |
| 2026-05-05 03:06 | 33.94711 | -118.40580 | 125 ft | 3 kts | 180° |
| 2026-05-05 03:06 | 33.94693 | -118.40592 | 123 ft | 7 kts | 221° |
| 2026-05-05 03:06 | 33.94680 | -118.40639 | 126 ft | 1 kts | 257° |
| 2026-05-05 03:06 | 33.94678 | -118.40647 | 126 ft | 0 kts | 257° |